createdAt,value
2019-01-12T00:00:07.822Z,0.90
2019-01-12T00:02:36.225Z,0.77
2019-01-12T00:05:04.808Z,1.07
2019-01-12T00:07:33.209Z,0.50
2019-01-12T00:10:01.534Z,0.33
2019-01-12T00:12:29.879Z,0.50
2019-01-12T00:14:58.336Z,0.90
2019-01-12T00:17:45.018Z,0.90
2019-01-12T00:20:13.417Z,1.23
2019-01-12T00:22:41.862Z,0.87
2019-01-12T00:25:10.372Z,0.40
2019-01-12T00:27:38.818Z,0.50
2019-01-12T00:30:07.666Z,1.00
2019-01-12T00:32:36.095Z,0.60
2019-01-12T00:35:04.713Z,0.87
2019-01-12T00:37:33.054Z,0.60
2019-01-12T00:40:01.377Z,0.40
2019-01-12T00:42:29.698Z,0.27
2019-01-12T00:44:58.022Z,0.50
2019-01-12T00:47:26.333Z,0.33
2019-01-12T00:49:54.744Z,0.80
2019-01-12T00:52:23.209Z,0.40
2019-01-12T00:54:51.790Z,0.87
2019-01-12T00:57:20.202Z,0.63
2019-01-12T00:59:48.526Z,0.50
2019-01-12T01:02:16.954Z,0.20
2019-01-12T01:04:45.329Z,0.63
2019-01-12T01:07:13.707Z,0.40
2019-01-12T01:09:42.106Z,0.10
2019-01-12T01:12:10.649Z,0.50
2019-01-12T01:14:38.937Z,0.20
2019-01-12T01:17:07.416Z,0.30
2019-01-12T01:19:35.834Z,0.33
2019-01-12T01:22:04.266Z,0.20
2019-01-12T01:24:32.681Z,0.77
2019-01-12T01:27:00.998Z,0.20
2019-01-12T01:29:29.329Z,0.10
2019-01-12T01:31:57.758Z,0.70
2019-01-12T01:34:26.202Z,0.50
2019-01-12T01:36:54.569Z,0.23
2019-01-12T01:39:22.961Z,0.40
2019-01-12T01:41:51.257Z,0.30
2019-01-12T01:44:19.756Z,0.53
2019-01-12T01:46:48.058Z,0.40
2019-01-12T01:49:16.520Z,0.50
2019-01-12T01:51:44.988Z,1.10
2019-01-12T01:54:13.343Z,0.43
2019-01-12T01:56:49.693Z,0.67
2019-01-12T01:59:18.010Z,0.40
2019-01-12T02:01:46.346Z,0.23
2019-01-12T02:04:14.714Z,1.00
2019-01-12T02:06:43.047Z,0.20
2019-01-12T02:09:11.365Z,0.23
2019-01-12T02:11:39.695Z,0.10
2019-01-12T02:14:08.114Z,0.37
2019-01-12T02:16:36.497Z,0.27
2019-01-12T02:19:04.916Z,0.63
2019-01-12T02:21:33.358Z,0.63
2019-01-12T02:24:01.726Z,0.20
2019-01-12T02:26:30.092Z,0.23
2019-01-12T02:28:58.440Z,0.50
2019-01-12T02:31:26.793Z,0.90
2019-01-12T02:33:55.203Z,0.70
2019-01-12T02:36:23.646Z,0.50
2019-01-12T02:38:51.988Z,0.40
2019-01-12T02:41:20.498Z,0.50
2019-01-12T02:43:48.811Z,0.43
2019-01-12T02:46:17.342Z,0.27
2019-01-12T02:48:45.710Z,0.60
2019-01-12T02:51:14.025Z,0.30
2019-01-12T02:53:42.368Z,0.40
2019-01-12T02:56:10.781Z,0.30
2019-01-12T02:58:39.212Z,0.97
2019-01-12T03:01:07.594Z,0.50
2019-01-12T03:03:35.946Z,0.33
2019-01-12T03:06:07.397Z,1.20
2019-01-12T03:08:35.886Z,0.50
2019-01-12T03:11:04.294Z,0.37
2019-01-12T03:13:32.755Z,0.60
2019-01-12T03:16:01.225Z,0.47
2019-01-12T03:18:29.755Z,0.53
2019-01-12T03:20:58.137Z,1.07
2019-01-12T03:23:26.631Z,0.67
2019-01-12T03:25:54.944Z,0.80
2019-01-12T03:28:23.268Z,0.50
2019-01-12T03:30:51.617Z,1.13
2019-01-12T03:33:19.988Z,0.80
2019-01-12T03:35:48.282Z,0.60
2019-01-12T03:38:16.623Z,0.60
2019-01-12T03:40:45.019Z,0.60
2019-01-12T03:43:13.362Z,0.50
2019-01-12T03:45:41.838Z,0.97
2019-01-12T03:48:10.236Z,0.67
2019-01-12T03:50:38.577Z,1.13
2019-01-12T03:53:06.913Z,0.43
2019-01-12T03:55:35.326Z,0.90
2019-01-12T03:58:03.830Z,0.90
2019-01-12T04:00:32.221Z,0.77
2019-01-12T04:03:00.593Z,0.90
2019-01-12T04:05:29.006Z,0.73
2019-01-12T04:07:57.355Z,0.80
2019-01-12T04:10:25.699Z,0.90
2019-01-12T04:12:54.100Z,0.53
2019-01-12T04:15:22.411Z,1.03
2019-01-12T04:17:50.763Z,0.80
2019-01-12T04:20:19.167Z,1.10
2019-01-12T04:22:47.593Z,0.77
2019-01-12T04:25:15.896Z,0.97
2019-01-12T04:27:44.250Z,0.50
2019-01-12T04:30:13.802Z,0.63
2019-01-12T04:32:42.208Z,0.93
2019-01-12T04:35:10.769Z,0.73
2019-01-12T04:37:39.235Z,0.43
2019-01-12T04:40:09.223Z,1.00
2019-01-12T04:42:37.661Z,0.40
2019-01-12T04:45:06.233Z,0.80
2019-01-12T04:47:34.651Z,0.70
2019-01-12T04:50:03.038Z,0.70
2019-01-12T04:52:31.370Z,0.77
2019-01-12T04:54:59.696Z,0.60
2019-01-12T04:57:28.164Z,0.57
2019-01-12T04:59:56.477Z,0.50
2019-01-12T05:02:25.223Z,0.40
2019-01-12T05:04:53.544Z,0.60
2019-01-12T05:07:21.999Z,0.47
2019-01-12T05:09:50.330Z,0.27
2019-01-12T05:12:18.642Z,0.50
2019-01-12T05:14:46.977Z,0.30
2019-01-12T05:17:15.332Z,0.30
2019-01-12T05:19:43.646Z,0.53
2019-01-12T05:22:12.441Z,0.77
2019-01-12T05:24:40.826Z,0.33
2019-01-12T05:27:09.189Z,0.40
2019-01-12T05:29:37.514Z,0.20
2019-01-12T05:32:05.945Z,0.60
2019-01-12T05:34:34.333Z,0.50
2019-01-12T05:37:02.629Z,0.50
2019-01-12T05:39:30.974Z,0.37
2019-01-12T05:41:59.366Z,0.57
2019-01-12T05:44:27.698Z,0.60
2019-01-12T05:46:56.289Z,0.83
2019-01-12T05:49:24.715Z,0.57
2019-01-12T05:51:53.078Z,0.10
2019-01-12T05:54:21.406Z,0.40
2019-01-12T05:56:50.087Z,0.40
2019-01-12T05:59:18.421Z,0.40
2019-01-12T06:01:46.733Z,0.20
2019-01-12T06:04:15.181Z,0.63
2019-01-12T06:06:43.498Z,0.57
2019-01-12T06:09:11.825Z,0.70
2019-01-12T06:11:40.186Z,0.70
2019-01-12T06:14:08.489Z,0.33
2019-01-12T06:16:36.802Z,0.23
2019-01-12T06:19:05.147Z,0.80
2019-01-12T06:21:33.466Z,0.40
2019-01-12T06:24:01.819Z,0.40
2019-01-12T06:26:30.223Z,0.60
2019-01-12T06:28:58.603Z,0.10
2019-01-12T06:31:26.961Z,0.50
2019-01-12T06:33:55.362Z,0.43
2019-01-12T06:36:23.820Z,0.33
2019-01-12T06:38:52.195Z,0.33
2019-01-12T06:41:20.538Z,0.50
2019-01-12T06:43:48.846Z,0.40
2019-01-12T06:46:17.242Z,0.60
2019-01-12T06:48:45.586Z,0.50
2019-01-12T06:51:14.068Z,0.57
2019-01-12T06:53:42.371Z,0.43
2019-01-12T06:56:11.024Z,0.63
2019-01-12T06:58:39.531Z,1.07
2019-01-12T07:01:07.834Z,0.60
2019-01-12T07:03:36.205Z,0.70
2019-01-12T07:06:04.597Z,0.40
2019-01-12T07:08:32.929Z,0.60
2019-01-12T07:11:01.267Z,0.60
2019-01-12T07:13:29.617Z,0.53
2019-01-12T07:15:57.969Z,0.53
2019-01-12T07:18:26.278Z,0.50
2019-01-12T07:20:54.639Z,0.70
2019-01-12T07:23:22.963Z,0.80
2019-01-12T07:25:51.662Z,0.40
2019-01-12T07:28:20.020Z,1.00
2019-01-12T07:30:48.414Z,0.20
2019-01-12T07:33:16.734Z,1.07
2019-01-12T07:35:45.034Z,0.73
2019-01-12T07:38:13.461Z,0.67
2019-01-12T07:40:42.094Z,0.87
2019-01-12T07:43:10.446Z,0.40
2019-01-12T07:45:38.759Z,0.60
2019-01-12T07:48:07.179Z,0.60
2019-01-12T07:50:39.458Z,0.97
2019-01-12T07:53:07.834Z,0.73
2019-01-12T07:55:36.141Z,0.80
2019-01-12T07:58:04.796Z,0.60
2019-01-12T08:00:33.104Z,0.70
2019-01-12T08:03:01.417Z,1.03
2019-01-12T08:05:29.788Z,0.63
2019-01-12T08:07:58.322Z,0.60
2019-01-12T08:10:27.092Z,1.07
2019-01-12T08:12:55.757Z,0.90
2019-01-12T08:15:24.249Z,1.37
2019-01-12T08:17:52.658Z,0.97
2019-01-12T08:20:21.041Z,1.20
2019-01-12T08:22:49.666Z,1.10
2019-01-12T08:25:18.110Z,0.83
2019-01-12T08:27:46.762Z,0.90
2019-01-12T08:30:16.370Z,0.70
2019-01-12T08:32:47.821Z,0.70
2019-01-12T08:35:18.590Z,2.00
2019-01-12T08:37:46.942Z,1.30
2019-01-12T08:40:15.423Z,1.30
2019-01-12T08:42:43.914Z,1.87
2019-01-12T08:45:12.494Z,2.23
2019-01-12T08:47:40.977Z,1.90
2019-01-12T08:50:13.409Z,1.90
2019-01-12T08:52:41.794Z,1.43
2019-01-12T08:55:10.465Z,1.23
2019-01-12T08:57:38.771Z,1.57
2019-01-12T09:00:08.946Z,2.20
2019-01-12T09:02:37.265Z,1.83
2019-01-12T09:05:06.070Z,1.65
2019-01-12T09:07:34.424Z,1.43
2019-01-12T09:10:02.813Z,1.93
2019-01-12T09:12:31.215Z,1.80
2019-01-12T09:14:59.538Z,2.10
2019-01-12T09:17:27.890Z,2.50
2019-01-12T09:19:56.226Z,1.77
2019-01-12T09:22:24.641Z,1.90
2019-01-12T09:24:53.361Z,2.30
2019-01-12T09:27:21.698Z,2.00
2019-01-12T09:29:50.026Z,2.50
2019-01-12T09:32:18.354Z,2.07
2019-01-12T09:34:46.790Z,2.07
2019-01-12T09:37:15.129Z,2.47
2019-01-12T09:39:43.582Z,2.67
2019-01-12T09:42:11.942Z,2.90
2019-01-12T09:44:40.308Z,2.97
2019-01-12T09:47:08.753Z,2.20
2019-01-12T09:49:37.101Z,2.77
2019-01-12T09:52:05.578Z,1.90
2019-01-12T09:54:33.882Z,2.17
2019-01-12T09:57:02.242Z,2.60
2019-01-12T09:59:30.554Z,3.00
2019-01-12T10:01:58.873Z,2.60
2019-01-12T10:04:27.265Z,2.70
2019-01-12T10:06:55.634Z,3.10
2019-01-12T10:09:23.954Z,3.30
2019-01-12T10:11:52.356Z,2.83
2019-01-12T10:14:20.781Z,3.17
2019-01-12T10:16:49.202Z,2.80
2019-01-12T10:19:19.223Z,3.00
2019-01-12T10:21:47.633Z,2.73
2019-01-12T10:24:15.994Z,3.13
2019-01-12T10:26:44.341Z,3.43
2019-01-12T10:29:12.691Z,3.37
2019-01-12T10:31:41.040Z,3.17
2019-01-12T10:34:09.749Z,4.17
2019-01-12T10:36:38.125Z,3.77
2019-01-12T10:39:07.502Z,2.90
2019-01-12T10:41:35.884Z,2.97
2019-01-12T10:44:04.597Z,2.80
2019-01-12T10:46:33.064Z,3.37
2019-01-12T10:49:01.366Z,3.90
2019-01-12T10:51:29.781Z,8.00
2019-01-12T10:53:58.119Z,4.53
2019-01-12T10:56:26.498Z,3.83
2019-01-12T10:58:55.267Z,3.00
2019-01-12T11:01:23.646Z,3.70
2019-01-12T11:03:52.185Z,2.73
2019-01-12T11:06:20.575Z,2.60
2019-01-12T11:08:48.939Z,2.63
2019-01-12T11:11:17.350Z,2.33
2019-01-12T11:13:45.758Z,2.90
2019-01-12T11:16:14.222Z,2.63
2019-01-12T11:18:42.545Z,2.83
2019-01-12T11:21:11.148Z,2.60
2019-01-12T11:23:39.687Z,2.10
2019-01-12T11:26:08.044Z,2.33
2019-01-12T11:28:36.375Z,2.00
2019-01-12T11:31:06.590Z,2.07
2019-01-12T11:33:34.922Z,1.87
2019-01-12T11:36:03.381Z,2.17
2019-01-12T11:38:31.837Z,2.00
2019-01-12T11:41:00.254Z,1.97
2019-01-12T11:43:28.873Z,1.63
2019-01-12T11:45:57.290Z,1.93
2019-01-12T11:48:25.610Z,1.77
2019-01-12T11:54:33.286Z,2.00
2019-01-12T11:57:01.610Z,1.40
2019-01-12T11:59:29.941Z,1.00
2019-01-12T12:01:58.482Z,1.70
2019-01-12T12:04:26.784Z,1.43
2019-01-12T12:06:55.215Z,1.40
2019-01-12T12:09:23.703Z,1.10
2019-01-12T12:11:52.048Z,1.10
2019-01-12T12:14:20.430Z,0.83
2019-01-12T12:16:48.768Z,1.27
2019-01-12T12:19:17.153Z,1.00
2019-01-12T12:21:47.818Z,1.60
2019-01-12T12:24:16.242Z,1.40
2019-01-12T12:26:44.609Z,1.20
2019-01-12T12:29:13.074Z,1.40
2019-01-12T12:31:41.374Z,1.23
2019-01-12T12:34:09.696Z,1.50
2019-01-12T12:36:38.022Z,1.07
2019-01-12T12:39:06.842Z,1.50
2019-01-12T12:41:35.206Z,1.17
2019-01-12T12:44:03.705Z,1.30
2019-01-12T12:46:32.201Z,5.53
2019-01-12T12:49:00.530Z,2.37
2019-01-12T12:51:29.000Z,2.50
2019-01-12T12:53:57.430Z,1.83
2019-01-12T12:56:45.025Z,1.03
2019-01-12T12:59:13.414Z,1.07
2019-01-12T13:01:41.758Z,1.30
2019-01-12T13:04:10.234Z,1.20
2019-01-12T13:06:38.618Z,1.40
2019-01-12T13:09:07.611Z,1.83
2019-01-12T13:11:36.046Z,0.97
2019-01-12T13:14:04.582Z,1.30
2019-01-12T13:16:33.007Z,1.10
2019-01-12T13:19:01.370Z,1.70
2019-01-12T13:21:29.846Z,1.40
2019-01-12T13:23:58.226Z,0.90
2019-01-12T13:26:26.649Z,0.60
2019-01-12T13:28:55.055Z,1.00
2019-01-12T13:31:23.474Z,0.83
2019-01-12T13:33:51.847Z,0.60
2019-01-12T13:36:20.287Z,1.10
2019-01-12T13:38:48.760Z,0.67
2019-01-12T13:41:17.182Z,0.80
2019-01-12T13:43:45.560Z,0.40
2019-01-12T13:46:13.983Z,0.80
2019-01-12T13:48:42.609Z,0.53
2019-01-12T13:51:11.164Z,0.73
2019-01-12T13:53:39.691Z,0.90
2019-01-12T13:56:08.139Z,0.47
2019-01-12T13:58:36.597Z,0.63
2019-01-12T14:01:05.200Z,1.07
2019-01-12T14:03:33.642Z,0.97
2019-01-12T14:06:02.096Z,0.87
2019-01-12T14:08:30.486Z,0.70
2019-01-12T14:10:59.124Z,0.90
2019-01-12T14:13:27.560Z,0.80
2019-01-12T14:15:56.055Z,0.77
2019-01-12T14:18:24.509Z,0.60
2019-01-12T14:20:52.953Z,0.83
2019-01-12T14:23:22.910Z,1.40
2019-01-12T14:25:51.261Z,1.53
2019-01-12T14:28:19.712Z,1.43
2019-01-12T14:30:48.234Z,1.27
2019-01-12T14:33:16.642Z,1.30
2019-01-12T14:35:45.278Z,0.90
2019-01-12T14:38:16.111Z,1.57
2019-01-12T14:40:44.644Z,0.80
2019-01-12T14:43:13.003Z,1.30
2019-01-12T14:45:41.349Z,1.20
2019-01-12T14:48:10.018Z,1.20
2019-01-12T14:50:38.375Z,2.17
2019-01-12T14:53:06.697Z,1.97
2019-01-12T14:55:35.010Z,0.90
2019-01-12T14:58:03.975Z,1.10
2019-01-12T15:00:32.455Z,1.63
2019-01-12T15:03:00.843Z,1.43
2019-01-12T15:05:30.159Z,0.80
2019-01-12T15:07:58.630Z,1.83
2019-01-12T15:10:27.055Z,1.20
2019-01-12T15:12:55.462Z,1.13
2019-01-12T15:15:23.974Z,0.77
2019-01-12T15:17:52.498Z,1.00
2019-01-12T15:20:21.991Z,0.93
2019-01-12T15:22:50.452Z,0.90
2019-01-12T15:25:19.225Z,0.70
2019-01-12T15:27:47.731Z,1.03
2019-01-12T15:30:28.403Z,0.43
2019-01-12T15:32:56.861Z,1.23
2019-01-12T15:35:26.429Z,0.80
2019-01-12T15:37:54.965Z,1.30
2019-01-12T15:40:23.384Z,0.77
2019-01-12T15:42:51.743Z,1.20
2019-01-12T15:45:21.068Z,1.20
2019-01-12T15:47:49.532Z,1.30
2019-01-12T15:50:18.855Z,0.73
2019-01-12T15:52:47.812Z,1.47
2019-01-12T15:55:16.267Z,1.00
2019-01-12T15:57:44.692Z,1.10
2019-01-12T16:00:14.844Z,1.40
2019-01-12T16:02:43.326Z,1.00
2019-01-12T16:05:11.809Z,0.40
2019-01-12T16:07:40.266Z,1.13
2019-01-12T16:10:09.141Z,0.90
2019-01-12T16:12:37.663Z,0.60
2019-01-12T16:15:07.198Z,0.80
2019-01-12T16:17:35.591Z,0.90
2019-01-12T16:20:04.926Z,1.70
2019-01-12T16:22:33.354Z,1.13
2019-01-12T16:25:01.670Z,0.93
2019-01-12T16:27:30.079Z,0.83
2019-01-12T16:29:58.406Z,1.10
2019-01-12T16:32:26.726Z,0.70
2019-01-12T16:34:55.406Z,0.40
2019-01-12T16:37:23.870Z,0.77
2019-01-12T16:39:52.323Z,0.83
2019-01-12T16:42:20.866Z,1.00
2019-01-12T16:44:49.214Z,1.50
2019-01-12T16:47:17.590Z,1.20
2019-01-12T16:49:45.954Z,1.10
2019-01-12T16:52:14.312Z,1.60
2019-01-12T16:54:42.695Z,1.57
2019-01-12T16:57:11.114Z,0.90
2019-01-12T16:59:39.961Z,1.27
2019-01-12T17:02:08.392Z,0.93
2019-01-12T17:04:36.962Z,1.17
2019-01-12T17:07:05.462Z,1.07
2019-01-12T17:09:33.879Z,0.83
2019-01-12T17:12:02.240Z,1.10
2019-01-12T17:14:30.554Z,1.40
2019-01-12T17:16:58.859Z,0.60
2019-01-12T17:19:30.413Z,1.03
2019-01-12T17:21:58.738Z,5.63
2019-01-12T17:24:27.046Z,2.75
2019-01-12T17:26:56.851Z,1.13
2019-01-12T17:29:25.223Z,0.90
2019-01-12T17:31:53.574Z,1.30
2019-01-12T17:34:22.059Z,0.63
2019-01-12T17:36:50.719Z,0.57
2019-01-12T17:39:19.152Z,1.17
2019-01-12T17:41:47.506Z,1.23
2019-01-12T17:44:15.895Z,1.27
2019-01-12T17:46:44.238Z,1.10
2019-01-12T17:49:12.686Z,1.00
2019-01-12T17:51:41.019Z,1.20
2019-01-12T17:54:09.397Z,0.87
2019-01-12T17:56:38.043Z,0.73
2019-01-12T17:59:06.477Z,1.07
2019-01-12T18:01:34.774Z,1.03
2019-01-12T18:04:03.525Z,0.97
2019-01-12T18:06:32.256Z,1.23
2019-01-12T18:09:00.732Z,0.70
2019-01-12T18:11:29.922Z,1.07
2019-01-12T18:13:58.438Z,0.90
2019-01-12T18:16:26.875Z,0.67
2019-01-12T18:18:57.059Z,1.00
2019-01-12T18:21:25.549Z,0.93
2019-01-12T18:23:53.996Z,0.87
2019-01-12T18:26:22.350Z,1.07
2019-01-12T18:28:51.575Z,0.53
2019-01-12T18:31:20.199Z,0.50
2019-01-12T18:33:48.595Z,0.50
2019-01-12T18:36:16.983Z,0.80
2019-01-12T18:38:46.118Z,0.83
2019-01-12T18:41:14.459Z,0.87
2019-01-12T18:43:42.866Z,0.83
2019-01-12T18:46:12.235Z,1.50
2019-01-12T18:48:40.834Z,0.70
2019-01-12T18:51:09.352Z,0.80
2019-01-12T18:53:37.654Z,0.43
2019-01-12T18:56:06.035Z,0.80
2019-01-12T18:58:34.476Z,0.80
2019-01-12T19:01:03.193Z,1.13
2019-01-12T19:03:31.839Z,0.97
2019-01-12T19:06:20.130Z,0.93
2019-01-12T19:08:48.778Z,1.13
2019-01-12T19:11:17.100Z,0.60
2019-01-12T19:13:45.503Z,1.30
2019-01-12T19:16:13.870Z,1.00
2019-01-12T19:18:42.315Z,0.87
2019-01-12T19:21:11.214Z,0.80
2019-01-12T19:23:39.767Z,0.90
2019-01-12T19:26:08.286Z,1.03
2019-01-12T19:28:37.232Z,1.30
2019-01-12T19:31:05.566Z,1.00
2019-01-12T19:33:34.077Z,0.83
2019-01-12T19:38:50.511Z,1.07
2019-01-12T19:41:19.794Z,1.10
2019-01-12T19:43:48.101Z,1.27
2019-01-12T19:46:16.529Z,1.53
2019-01-12T19:48:44.846Z,0.70
2019-01-12T19:51:13.242Z,1.43
2019-01-12T19:53:41.638Z,0.43
2019-01-12T19:56:09.960Z,0.93
2019-01-12T19:58:38.321Z,1.07
2019-01-12T20:01:06.651Z,1.87
2019-01-12T20:03:35.015Z,0.70
2019-01-12T20:06:03.418Z,0.37
2019-01-12T20:08:31.758Z,0.60
2019-01-12T20:11:00.099Z,1.10
2019-01-12T20:13:28.410Z,1.10
2019-01-12T20:15:56.915Z,0.93
2019-01-12T20:18:25.275Z,0.83
2019-01-12T20:20:53.578Z,1.17
2019-01-12T20:23:21.906Z,1.07
2019-01-12T20:25:50.278Z,1.20
2019-01-12T20:28:19.577Z,1.20
2019-01-12T20:31:02.909Z,0.83
2019-01-12T20:33:34.869Z,0.83
2019-01-12T20:36:11.010Z,0.60
2019-01-12T20:38:49.086Z,1.00
2019-01-12T20:41:36.814Z,1.10
2019-01-12T20:44:23.200Z,0.80
2019-01-12T20:47:25.891Z,1.03
2019-01-12T20:49:59.713Z,0.53
2019-01-12T20:52:47.311Z,0.90
2019-01-12T20:55:22.595Z,1.20
2019-01-12T20:58:22.201Z,1.33
2019-01-12T21:01:19.098Z,0.60
2019-01-12T21:04:09.665Z,1.17
2019-01-12T21:07:00.259Z,0.80
2019-01-12T21:09:37.378Z,0.83
2019-01-12T21:12:23.287Z,1.03
2019-01-12T21:15:00.483Z,0.93
2019-01-12T21:17:28.977Z,1.03
2019-01-12T21:19:57.358Z,0.63
2019-01-12T21:22:25.738Z,1.57
2019-01-12T21:24:54.157Z,1.03
2019-01-12T21:27:22.914Z,1.27
2019-01-12T21:29:51.450Z,1.17
2019-01-12T21:32:19.761Z,1.10
2019-01-12T21:34:48.185Z,0.90
2019-01-12T21:37:16.866Z,1.63
2019-01-12T21:39:45.446Z,1.80
2019-01-12T21:42:13.999Z,1.17
2019-01-12T21:44:42.530Z,1.13
2019-01-12T21:47:10.963Z,1.00
2019-01-12T21:49:39.366Z,1.17
2019-01-12T21:52:07.761Z,0.70
2019-01-12T21:54:36.245Z,0.77
2019-01-12T21:57:04.649Z,1.23
2019-01-12T21:59:33.054Z,1.30
2019-01-12T22:02:01.694Z,0.60
2019-01-12T22:04:30.339Z,1.07
2019-01-12T22:06:58.758Z,1.10
2019-01-12T22:09:27.229Z,0.90
2019-01-12T22:11:55.626Z,0.87
2019-01-12T22:14:24.072Z,1.30
2019-01-12T22:16:52.477Z,1.07
2019-01-12T22:19:20.833Z,0.63
2019-01-12T22:21:49.153Z,1.10
2019-01-12T22:24:18.141Z,0.77
2019-01-12T22:26:46.766Z,0.90
2019-01-12T22:29:15.114Z,1.00
2019-01-12T22:31:43.445Z,0.50
2019-01-12T22:34:11.859Z,1.07
2019-01-12T22:36:40.339Z,1.20
2019-01-12T22:39:09.273Z,0.87
2019-01-12T22:41:37.733Z,0.67
2019-01-12T22:44:06.121Z,0.60
2019-01-12T22:46:34.630Z,0.83
2019-01-12T22:49:03.137Z,1.30
2019-01-12T22:51:31.601Z,0.80
2019-01-12T22:53:59.986Z,0.73
2019-01-12T22:56:28.383Z,1.20
2019-01-12T22:58:56.844Z,1.10
2019-01-12T23:01:43.058Z,0.60
2019-01-12T23:04:11.830Z,0.80
2019-01-12T23:06:40.307Z,0.63
2019-01-12T23:09:11.139Z,0.83
2019-01-12T23:11:39.694Z,1.22
2019-01-12T23:14:08.164Z,0.90
2019-01-12T23:16:36.582Z,0.63
2019-01-12T23:19:05.102Z,1.30
2019-01-12T23:21:33.502Z,1.27
2019-01-12T23:24:01.921Z,1.53
2019-01-12T23:26:30.258Z,1.10
2019-01-12T23:28:58.581Z,0.70
2019-01-12T23:31:27.156Z,1.00
2019-01-12T23:33:55.494Z,0.93
2019-01-12T23:36:24.093Z,0.73
2019-01-12T23:38:52.484Z,1.00
2019-01-12T23:41:20.975Z,0.80
2019-01-12T23:43:49.465Z,0.87
2019-01-12T23:46:17.856Z,0.53
2019-01-12T23:48:46.198Z,0.70
2019-01-12T23:51:14.585Z,0.93
2019-01-12T23:53:43.050Z,0.97
2019-01-12T23:56:11.471Z,0.70
2019-01-12T23:58:39.844Z,1.00
